Terminal Aerodrome Forecast
Issued by NWS

Home | Current Version | Previous Version | Graphics & Text | Print | Product List | Glossary On
Versions: 1 2 3 4 5 6 7 8 9 10 11 12 13 14 15 16 17 18 19 20 21 22 23 24
218
FTUS45 KGGW 101720
TAFGDV
TAF
KGDV 101720Z 1018/1118 27011KT P6SM SCT150
     FM110100 27012KT P6SM SKC WS020/31040KT
     FM111000 31015KT P6SM SCT080
     FM111500 31010KT P6SM BKN050=

USA.gov is the U.S. government's official web portal to all federal, state and local government web resources and services.